ANA256 RJFF-RJTT
Flight info
| Callsign | ANA256 |
|---|---|
| Flight time | N/A |
| Altitude | 39000 |
| Route | IPRIR Y231 OMKAT Y235 FLUTE Y23 ARTIC Y71 XAC |
| Aircraft | B772/H-SDE2E3FGHIJ5LORVWXY/LB1D1 |
Departure
| Time | 2026-04-30 14:26 |
|---|---|
| Airport | Fukuoka Airport (RJFF) |
Arrival
| Time | N/A |
|---|---|
| Airport | Tokyo Haneda International Airport (RJTT) |
| Time | Latitude | Longitude | Altitude | Speed | Heading |
|---|---|---|---|---|---|
| 2026-04-30 13:49 | 33.59792 | 130.44694 | 23 ft | 0 kts | 60° |
| 2026-04-30 14:14 | 33.59787 | 130.44685 | 22 ft | 2 kts | 60° |
| 2026-04-30 14:14 | 33.59780 | 130.44670 | 22 ft | 2 kts | 60° |
| 2026-04-30 14:14 | 33.59772 | 130.44655 | 21 ft | 2 kts | 56° |
| 2026-04-30 14:14 | 33.59763 | 130.44641 | 21 ft | 2 kts | 38° |
| 2026-04-30 14:15 | 33.59749 | 130.44630 | 20 ft | 2 kts | 23° |
| 2026-04-30 14:15 | 33.59735 | 130.44624 | 20 ft | 2 kts | 8° |
| 2026-04-30 14:15 | 33.59720 | 130.44624 | 20 ft | 2 kts | 354° |
| 2026-04-30 14:15 | 33.59705 | 130.44627 | 20 ft | 2 kts | 340° |
| 2026-04-30 14:16 | 33.59691 | 130.44635 | 21 ft | 2 kts | 327° |
| 2026-04-30 14:16 | 33.59679 | 130.44644 | 21 ft | 1 kts | 328° |
| 2026-04-30 14:16 | 33.59677 | 130.44646 | 21 ft | 0 kts | 328° |
| 2026-04-30 14:20 | 33.59683 | 130.44641 | 21 ft | 3 kts | 329° |
| 2026-04-30 14:20 | 33.59785 | 130.44563 | 18 ft | 11 kts | 298° |
| 2026-04-30 14:21 | 33.59755 | 130.44475 | 17 ft | 12 kts | 232° |
| 2026-04-30 14:21 | 33.59733 | 130.44432 | 17 ft | 0 kts | 240° |
| 2026-04-30 14:23 | 33.59721 | 130.44406 | 17 ft | 4 kts | 240° |
| 2026-04-30 14:23 | 33.59650 | 130.44348 | 15 ft | 7 kts | 135° |
| 2026-04-30 14:24 | 33.59623 | 130.44369 | 16 ft | 0 kts | 152° |
| 2026-04-30 14:24 | 33.59616 | 130.44374 | 16 ft | 1 kts | 152° |
| 2026-04-30 14:25 | 33.59589 | 130.44391 | 17 ft | 15 kts | 152° |
| 2026-04-30 14:25 | 33.58437 | 130.45175 | 92 ft | 171 kts | 150° |
| 2026-04-30 14:26 | 33.56235 | 130.46606 | 2012 ft | 189 kts | 153° |
| 2026-04-30 14:26 | 33.55133 | 130.47296 | 3281 ft | 186 kts | 153° |
| 2026-04-30 14:26 | 33.52831 | 130.48738 | 5421 ft | 205 kts | 153° |
| 2026-04-30 14:27 | 33.51558 | 130.49530 | 6557 ft | 220 kts | 153° |
| 2026-04-30 14:27 | 33.50182 | 130.50385 | 7720 ft | 234 kts | 153° |
| 2026-04-30 14:27 | 33.48714 | 130.51296 | 8890 ft | 250 kts | 153° |
| 2026-04-30 14:28 | 33.46055 | 130.52946 | 10828 ft | 276 kts | 153° |
| 2026-04-30 14:28 | 33.43093 | 130.54784 | 12694 ft | 303 kts | 153° |
| 2026-04-30 14:29 | 33.39074 | 130.57275 | 14819 ft | 338 kts | 154° |
| 2026-04-30 14:29 | 33.35060 | 130.60774 | 16955 ft | 369 kts | 127° |